Scio, Michigan
Current Conditions -  °F | °C
As of 4:53 AM on Friday 31 Oct 2014 (Local Time) from KARB Reporting Station
Overcast Overcast  
Wind Chill: 39°   Ceiling: 6000
Heat Index: 43°   Visibility: 10mi
Dew Point: 35°   Wind: 6mph
Humidity: 74%   Direction: 230°SW
Pressure: 29.92"   Gusts: NA
Location:  42.3528°N, 83.8974°W
Report Text: KARB 310853Z AUTO 23005KT 10SM FEW042 OVC060 06/02 A2992 RMK AO2 SLP137 60000 T00610017 58017
Loading
Personal Weather Stations






























Interactive Weather Map New forecast layout! Learn more

10-Day Weather Forecast

Advertisements
Track Severe Weather on mobile